Time;durP1;ratioP1;P1;durP2;ratioP2;P2;SDS_P1;SDS_P2;PMS_P1;PMS_P2;Temp;Humidity;BMP_temperature;BMP_pressure;BME280_temperature;BME280_humidity;BME280_pressure;Samples;Min_cycle;Max_cycle;Signal;HPM_P1;HPM_P2
2022/07/10 00:01:35;;;;;;;1.33;1.00;;;25.10;45.50;;;;;;5102870;27;20538;-48
2022/07/10 00:04:15;;;;;;;2.63;1.00;;;25.10;45.60;;;;;;5107268;27;20534;-48
2022/07/10 00:06:58;;;;;;;1.60;1.20;;;25.10;45.40;;;;;;5062639;28;20907;-49
2022/07/10 00:09:37;;;;;;;2.70;1.17;;;25.00;45.40;;;;;;5115333;27;20571;-48
2022/07/10 00:12:17;;;;;;;1.47;0.97;;;25.00;45.40;;;;;;5076725;28;21053;-48
2022/07/10 00:14:57;;;;;;;1.27;0.80;;;25.00;45.30;;;;;;5122516;27;20525;-48
2022/07/10 00:17:39;;;;;;;1.43;1.10;;;25.00;45.50;;;;;;5068642;27;21366;-47
2022/07/10 00:20:20;;;;;;;3.47;1.50;;;25.00;45.50;;;;;;5128497;27;20520;-48
2022/07/10 00:22:59;;;;;;;1.90;1.10;;;25.00;45.60;;;;;;5092567;27;20610;-48
2022/07/10 00:25:41;;;;;;;1.33;0.97;;;25.00;45.50;;;;;;5109126;27;20572;-49
2022/07/10 00:28:21;;;;;;;1.83;1.27;;;25.10;45.40;;;;;;5067000;27;20554;-49
2022/07/10 00:31:00;;;;;;;1.43;1.10;;;25.00;45.30;;;;;;5079071;27;20577;-48
2022/07/10 00:33:40;;;;;;;1.10;0.90;;;25.00;45.30;;;;;;5117544;27;20597;-47
2022/07/10 00:36:20;;;;;;;1.90;1.27;;;25.00;45.30;;;;;;5083799;27;21112;-49
2022/07/10 00:39:00;;;;;;;1.30;1.00;;;25.00;45.40;;;;;;4959117;27;20563;-47
2022/07/10 00:41:40;;;;;;;2.60;1.37;;;25.00;45.40;;;;;;5118710;27;20604;-48
2022/07/10 00:44:19;;;;;;;1.00;0.90;;;25.00;45.40;;;;;;5082164;27;20525;-48
2022/07/10 00:46:59;;;;;;;2.23;0.80;;;25.00;45.40;;;;;;5062854;27;20536;-48
2022/07/10 00:49:40;;;;;;;2.30;1.10;;;25.00;45.50;;;;;;5121323;27;21097;-49
2022/07/10 00:52:21;;;;;;;2.43;1.00;;;25.00;45.40;;;;;;5068582;27;20954;-47
2022/07/10 00:55:00;;;;;;;2.70;1.00;;;25.00;45.60;;;;;;5079842;28;20585;-48
2022/07/10 00:57:41;;;;;;;1.30;1.00;;;25.00;45.40;;;;;;5105782;27;20536;-49
2022/07/10 01:00:22;;;;;;;2.60;0.90;;;25.00;45.40;;;;;;5075781;28;20558;-49
2022/07/10 01:03:03;;;;;;;1.43;0.80;;;25.00;45.30;;;;;;5051778;28;20615;-49
2022/07/10 01:05:45;;;;;;;1.97;0.80;;;25.00;45.50;;;;;;5098492;27;20543;-47
2022/07/10 01:08:24;;;;;;;2.70;1.10;;;24.90;45.30;;;;;;5108203;27;20590;-47
2022/07/10 01:11:06;;;;;;;1.73;0.93;;;24.90;45.40;;;;;;5079673;27;20577;-47
2022/07/10 01:13:47;;;;;;;1.43;1.10;;;24.90;45.30;;;;;;5072561;27;20544;-47
2022/07/10 01:16:29;;;;;;;1.60;0.90;;;24.90;45.30;;;;;;5131218;27;20534;-53
2022/07/10 01:19:10;;;;;;;1.40;1.20;;;24.90;45.30;;;;;;5067058;27;20559;-48
2022/07/10 01:21:50;;;;;;;1.87;1.00;;;24.90;45.30;;;;;;5122446;27;20930;-48
2022/07/10 01:24:30;;;;;;;3.40;1.10;;;24.90;45.30;;;;;;5078371;27;20602;-48
2022/07/10 01:27:09;;;;;;;2.97;1.37;;;24.90;45.30;;;;;;5058585;28;20613;-48
2022/07/10 01:29:51;;;;;;;2.23;1.20;;;24.90;45.40;;;;;;5085270;28;20530;-49
2022/07/10 01:32:39;;;;;;;1.00;0.80;;;24.90;45.40;;;;;;5065979;28;20555;-47
2022/07/10 01:35:20;;;;;;;1.23;1.13;;;24.90;45.30;;;;;;5069556;27;20526;-47
2022/07/10 01:38:00;;;;;;;1.67;1.10;;;24.90;45.30;;;;;;5069032;27;20552;-47
2022/07/10 01:40:41;;;;;;;2.20;1.40;;;24.90;45.40;;;;;;5107155;27;20598;-48
2022/07/10 01:43:21;;;;;;;3.43;1.33;;;24.90;45.40;;;;;;5075091;27;21085;-48
2022/07/10 01:46:01;;;;;;;1.70;0.97;;;24.90;45.20;;;;;;5070426;27;20540;-48
2022/07/10 01:48:41;;;;;;;3.07;1.10;;;24.90;45.40;;;;;;5053409;27;20604;-48
2022/07/10 01:51:22;;;;;;;1.40;1.00;;;24.90;45.50;;;;;;5087469;28;20524;-48
2022/07/10 01:54:02;;;;;;;1.10;1.00;;;24.90;45.40;;;;;;5020139;28;20597;-48
2022/07/10 01:56:42;;;;;;;1.40;0.90;;;24.80;45.20;;;;;;5068194;27;20590;-48
2022/07/10 01:59:21;;;;;;;1.83;1.10;;;24.80;45.30;;;;;;5085701;27;20589;-48
2022/07/10 02:02:01;;;;;;;1.40;1.00;;;24.80;45.30;;;;;;5098729;27;20536;-48
2022/07/10 02:04:44;;;;;;;1.90;1.10;;;24.80;45.30;;;;;;5079657;27;21113;-48
2022/07/10 02:07:25;;;;;;;1.97;1.03;;;24.80;45.20;;;;;;5050793;27;20545;-49
2022/07/10 02:10:06;;;;;;;1.97;1.27;;;24.80;45.20;;;;;;5084014;27;21064;-47
2022/07/10 02:12:47;;;;;;;2.30;1.10;;;24.80;45.20;;;;;;5061587;27;20604;-48
2022/07/10 02:15:27;;;;;;;2.10;1.27;;;24.80;45.30;;;;;;5109493;27;20533;-71
2022/07/10 02:18:06;;;;;;;1.40;1.03;;;24.80;45.40;;;;;;5027445;27;20614;-48
2022/07/10 02:20:46;;;;;;;2.33;1.40;;;24.80;45.30;;;;;;5064701;27;20533;-47
2022/07/10 02:23:26;;;;;;;1.60;1.10;;;24.80;45.30;;;;;;5097748;27;1207766;-47
2022/07/10 02:26:08;;;;;;;1.17;0.90;;;24.80;45.40;;;;;;5112506;27;20602;-47
2022/07/10 02:28:49;;;;;;;1.20;1.10;;;24.80;45.50;;;;;;5065892;27;21130;-49
2022/07/10 02:31:29;;;;;;;2.53;1.30;;;24.80;45.40;;;;;;5081033;27;20604;-47
2022/07/10 02:34:09;;;;;;;3.30;1.10;;;24.70;45.40;;;;;;5059516;28;20528;-50
2022/07/10 02:36:50;;;;;;;1.17;0.90;;;24.70;45.40;;;;;;5109644;27;20595;-48
2022/07/10 02:39:30;;;;;;;2.10;1.30;;;24.70;45.40;;;;;;5123284;27;20528;-49
2022/07/10 02:42:09;;;;;;;2.63;1.03;;;24.70;46.50;;;;;;5053714;28;20598;-48
2022/07/10 02:44:49;;;;;;;1.10;0.87;;;24.70;45.30;;;;;;5148895;27;20572;-49
2022/07/10 02:47:29;;;;;;;1.87;1.30;;;24.70;45.40;;;;;;5057094;28;20939;-48
2022/07/10 02:50:10;;;;;;;1.40;1.07;;;24.70;45.40;;;;;;5067819;27;20584;-48
2022/07/10 02:52:50;;;;;;;1.53;1.17;;;24.70;45.40;;;;;;5068929;28;20536;-48
2022/07/10 02:55:31;;;;;;;1.90;1.23;;;24.70;45.40;;;;;;5126244;27;20564;-48
2022/07/10 02:58:12;;;;;;;1.30;1.03;;;24.70;45.30;;;;;;5076895;27;20532;-48
2022/07/10 03:00:53;;;;;;;2.10;0.97;;;24.70;45.40;;;;;;5106280;27;20582;-49
2022/07/10 03:03:35;;;;;;;1.30;0.80;;;24.70;45.40;;;;;;5058128;27;20598;-48
2022/07/10 03:06:16;;;;;;;1.43;1.10;;;24.70;45.40;;;;;;5087093;28;20587;-48
2022/07/10 03:08:55;;;;;;;3.87;1.23;;;24.70;45.40;;;;;;5060791;27;20612;-48
2022/07/10 03:11:35;;;;;;;1.10;1.00;;;24.70;45.40;;;;;;5078950;28;20941;-47
2022/07/10 03:14:16;;;;;;;1.50;1.07;;;24.70;45.40;;;;;;5082614;28;20594;-49
2022/07/10 03:16:56;;;;;;;2.77;1.00;;;24.70;45.40;;;;;;5063425;28;20575;-48
2022/07/10 03:19:36;;;;;;;1.67;1.17;;;24.60;45.40;;;;;;5086392;27;20605;-48
2022/07/10 03:22:16;;;;;;;2.00;1.07;;;24.60;45.40;;;;;;5100118;27;21235;-48
2022/07/10 03:24:56;;;;;;;1.90;1.13;;;24.60;45.40;;;;;;5068967;27;20546;-49
2022/07/10 03:27:36;;;;;;;2.80;0.90;;;24.60;45.40;;;;;;5070425;27;20611;-47
2022/07/10 03:30:19;;;;;;;2.50;1.37;;;24.60;45.50;;;;;;5128394;27;20574;-47
2022/07/10 03:33:00;;;;;;;1.37;1.00;;;24.60;45.60;;;;;;5089789;27;20910;-48
2022/07/10 03:35:40;;;;;;;1.37;1.00;;;24.60;45.40;;;;;;5077520;28;21124;-49
2022/07/10 03:38:21;;;;;;;1.80;1.00;;;24.60;45.40;;;;;;5063556;27;21028;-48
2022/07/10 03:41:03;;;;;;;1.77;1.40;;;24.60;45.50;;;;;;5096025;27;20587;-48
2022/07/10 03:43:43;;;;;;;1.20;1.10;;;24.60;45.50;;;;;;5052843;27;20558;-49
2022/07/10 03:46:24;;;;;;;5.00;1.20;;;24.50;45.30;;;;;;5097540;27;20547;-49
2022/07/10 03:49:05;;;;;;;2.07;1.30;;;24.50;45.40;;;;;;5073876;28;20816;-49
2022/07/10 03:51:45;;;;;;;1.90;0.80;;;24.50;45.40;;;;;;5111021;27;21049;-48
2022/07/10 03:54:27;;;;;;;2.07;1.10;;;24.50;45.40;;;;;;5075106;28;20599;-48
2022/07/10 04:00:07;;;;;;;2.10;1.00;;;24.50;45.50;;;;;;5080838;28;20549;-49
2022/07/10 04:02:57;;;;;;;3.50;1.60;;;24.50;45.40;;;;;;5064462;27;20605;-49
2022/07/10 04:05:37;;;;;;;1.13;1.00;;;24.50;45.40;;;;;;5123191;27;1304166;-48
2022/07/10 04:08:18;;;;;;;1.40;0.80;;;24.50;45.50;;;;;;5056584;27;20605;-49
2022/07/10 04:10:59;;;;;;;1.30;1.17;;;24.50;45.60;;;;;;5119856;27;20586;-48
2022/07/10 04:13:40;;;;;;;4.70;1.17;;;24.50;45.50;;;;;;5051063;27;21060;-49
2022/07/10 04:16:20;;;;;;;1.90;1.20;;;24.50;45.50;;;;;;5078169;27;20582;-49
2022/07/10 04:19:02;;;;;;;1.30;0.90;;;24.50;45.60;;;;;;5064582;27;20603;-49
2022/07/10 04:21:43;;;;;;;1.87;1.10;;;24.50;45.60;;;;;;5058379;28;20748;-49
2022/07/10 04:24:23;;;;;;;1.67;1.00;;;24.50;45.60;;;;;;5077505;27;20539;-49
2022/07/10 04:27:03;;;;;;;1.30;1.10;;;24.50;45.60;;;;;;5066146;27;20538;-49
2022/07/10 04:29:44;;;;;;;4.10;1.23;;;24.40;45.50;;;;;;5072514;28;20575;-48
2022/07/10 04:32:27;;;;;;;1.90;1.23;;;24.40;45.40;;;;;;5119605;27;20560;-48
2022/07/10 04:35:09;;;;;;;2.03;1.17;;;24.40;45.50;;;;;;5067119;27;20588;-49
2022/07/10 04:37:50;;;;;;;1.73;1.03;;;24.40;45.50;;;;;;5060216;27;20592;-48
2022/07/10 04:40:31;;;;;;;2.03;1.20;;;24.40;45.40;;;;;;5075898;27;20521;-48
2022/07/10 04:43:13;;;;;;;1.43;1.27;;;24.40;45.40;;;;;;5068065;27;20537;-49
2022/07/10 04:45:54;;;;;;;3.37;1.60;;;24.30;45.40;;;;;;5100261;27;20563;-49
2022/07/10 04:48:36;;;;;;;1.40;0.83;;;24.30;45.40;;;;;;5037926;27;20552;-49
2022/07/10 04:51:17;;;;;;;1.57;0.90;;;24.30;45.40;;;;;;5082853;28;21108;-49
2022/07/10 04:53:59;;;;;;;2.40;1.20;;;24.30;45.50;;;;;;5057994;27;20548;-49
2022/07/10 04:56:40;;;;;;;3.20;1.13;;;24.30;45.60;;;;;;5090855;27;20539;-48
2022/07/10 04:59:20;;;;;;;1.70;1.23;;;24.30;45.50;;;;;;5087081;27;20578;-49
2022/07/10 05:02:01;;;;;;;2.00;1.27;;;24.30;45.50;;;;;;5068921;27;20608;-49
2022/07/10 05:04:41;;;;;;;1.17;0.90;;;24.30;45.40;;;;;;5078727;28;20529;-48
2022/07/10 05:07:21;;;;;;;2.60;1.10;;;24.30;45.50;;;;;;5086146;22;20955;-48
2022/07/10 05:10:02;;;;;;;1.57;1.03;;;24.30;45.50;;;;;;5112909;27;21065;-49
2022/07/10 05:12:43;;;;;;;1.63;1.17;;;24.30;45.60;;;;;;5089733;27;20595;-48
2022/07/10 05:15:24;;;;;;;1.10;0.90;;;24.30;45.50;;;;;;5084110;27;20573;-48
2022/07/10 05:18:05;;;;;;;1.13;1.03;;;24.30;45.70;;;;;;5048700;28;20550;-48
2022/07/10 05:20:49;;;;;;;3.43;0.93;;;24.30;45.60;;;;;;5084682;27;20507;-49
2022/07/10 05:23:29;;;;;;;1.23;1.10;;;24.30;45.60;;;;;;5081029;27;20605;-48
2022/07/10 05:26:11;;;;;;;2.27;1.30;;;24.20;45.40;;;;;;5009595;28;20569;-47
2022/07/10 05:28:52;;;;;;;2.90;1.33;;;24.20;45.50;;;;;;5075819;27;20539;-48
2022/07/10 05:31:33;;;;;;;1.43;0.70;;;24.20;45.50;;;;;;5085645;27;21097;-47
2022/07/10 05:34:15;;;;;;;1.63;1.00;;;24.20;45.60;;;;;;5080965;28;20583;-47
2022/07/10 05:36:54;;;;;;;1.60;1.17;;;24.20;45.60;;;;;;5119107;27;20533;-49
2022/07/10 05:39:36;;;;;;;2.93;1.33;;;24.20;45.50;;;;;;5078172;28;20589;-47
2022/07/10 05:42:18;;;;;;;3.20;1.30;;;24.20;45.60;;;;;;5081112;27;20573;-46
2022/07/10 05:44:59;;;;;;;1.70;1.40;;;24.10;45.50;;;;;;5082665;28;20527;-49
2022/07/10 05:47:40;;;;;;;1.67;1.00;;;24.10;45.40;;;;;;5068133;27;20542;-48
2022/07/10 05:50:20;;;;;;;2.23;1.20;;;24.10;45.60;;;;;;5074819;27;20534;-47
2022/07/10 05:53:02;;;;;;;3.93;1.50;;;24.10;45.40;;;;;;5082976;27;20564;-49
2022/07/10 05:55:43;;;;;;;2.40;1.50;;;24.10;45.40;;;;;;5091657;27;20860;-50
2022/07/10 05:58:23;;;;;;;1.37;0.87;;;24.10;45.60;;;;;;5062544;27;20569;-45
2022/07/10 06:01:04;;;;;;;2.30;1.13;;;24.10;45.60;;;;;;5067614;28;20657;-47
2022/07/10 06:03:46;;;;;;;2.07;0.97;;;24.10;45.70;;;;;;5049790;28;20567;-47
2022/07/10 06:06:27;;;;;;;1.27;1.17;;;24.10;45.80;;;;;;5125612;27;20525;-48
2022/07/10 06:09:07;;;;;;;2.63;1.60;;;24.10;45.60;;;;;;4982102;27;20542;-47
2022/07/10 06:11:49;;;;;;;3.13;1.00;;;24.10;45.70;;;;;;5084434;27;20871;-48
2022/07/10 06:14:29;;;;;;;1.17;1.07;;;24.10;45.70;;;;;;5122649;27;20572;-49
2022/07/10 06:17:14;;;;;;;1.80;1.20;;;24.10;45.60;;;;;;5065884;27;20526;-47
2022/07/10 06:19:55;;;;;;;3.00;1.23;;;24.10;45.70;;;;;;5077976;27;20574;-49
2022/07/10 06:22:35;;;;;;;1.47;1.33;;;24.10;45.70;;;;;;5105153;27;20953;-49
2022/07/10 06:25:17;;;;;;;3.17;0.93;;;24.10;45.70;;;;;;5085926;27;21074;-47
2022/07/10 06:27:58;;;;;;;1.97;1.17;;;24.10;45.80;;;;;;5049393;28;20539;-47
2022/07/10 06:30:39;;;;;;;1.43;0.87;;;24.10;45.80;;;;;;5128159;27;20587;-49
2022/07/10 06:33:21;;;;;;;1.67;1.27;;;24.10;45.80;;;;;;5085560;27;20635;-47
2022/07/10 06:36:03;;;;;;;1.27;1.00;;;24.10;45.80;;;;;;5076756;28;20549;-47
2022/07/10 06:38:44;;;;;;;3.00;1.20;;;24.10;45.90;;;;;;5051610;27;20560;-48
2022/07/10 06:41:25;;;;;;;1.17;0.93;;;24.00;45.80;;;;;;5127879;27;20537;-47
2022/07/10 06:44:07;;;;;;;3.60;1.43;;;24.00;45.90;;;;;;5064577;28;20555;-48
2022/07/10 06:47:55;;;;;;;1.20;0.90;;;24.00;45.80;;;;;;5116581;27;20663;-48
2022/07/10 06:49:50;;;;;;;1.40;1.10;;;24.00;45.80;;;;;;5078881;27;20516;-47
2022/07/10 06:52:32;;;;;;;3.07;1.20;;;24.00;45.80;;;;;;5107123;27;21060;-49
2022/07/10 06:55:13;;;;;;;1.77;1.00;;;24.00;45.90;;;;;;5078366;28;20557;-47
2022/07/10 06:57:55;;;;;;;2.80;1.00;;;24.00;45.80;;;;;;5048022;27;20551;-47
2022/07/10 07:00:36;;;;;;;1.87;1.20;;;24.00;45.80;;;;;;5093059;27;20582;-49
2022/07/10 07:03:17;;;;;;;1.80;1.10;;;24.00;45.80;;;;;;5067024;27;21104;-48
2022/07/10 07:05:59;;;;;;;2.07;1.30;;;23.90;45.80;;;;;;5098032;27;20551;-48
2022/07/10 07:08:40;;;;;;;1.20;1.00;;;23.90;45.90;;;;;;5050638;27;20613;-50
2022/07/10 07:11:26;;;;;;;3.00;0.93;;;23.90;45.90;;;;;;5089944;28;21125;-48
2022/07/10 07:14:08;;;;;;;1.77;1.07;;;23.90;45.80;;;;;;5055932;27;20529;-46
2022/07/10 07:16:58;;;;;;;1.10;1.00;;;23.90;45.90;;;;;;5095308;27;20527;-47
2022/07/10 07:25:48;;;;;;;1.13;1.03;;;23.90;46.00;;;;;;5119107;27;20540;-48
2022/07/10 07:28:29;;;;;;;2.00;1.17;;;23.90;46.00;;;;;;5072071;27;20585;-47
2022/07/10 07:31:10;;;;;;;1.20;1.10;;;23.90;46.10;;;;;;5058508;27;21007;-49
2022/07/10 07:33:54;;;;;;;2.50;1.40;;;23.90;46.00;;;;;;5098319;27;1526170;-48
2022/07/10 07:36:35;;;;;;;1.07;0.87;;;23.90;46.10;;;;;;5130449;27;20546;-71
2022/07/10 07:39:15;;;;;;;1.70;1.10;;;23.90;46.10;;;;;;5077456;27;20540;-48
2022/07/10 07:41:56;;;;;;;2.63;1.20;;;23.90;46.10;;;;;;5113312;27;20517;-46
2022/07/10 07:44:37;;;;;;;2.73;1.03;;;23.90;46.00;;;;;;5072945;28;20591;-46
2022/07/10 07:47:19;;;;;;;2.37;1.20;;;23.90;46.10;;;;;;5047871;27;20579;-45
2022/07/10 07:50:04;;;;;;;2.60;1.13;;;23.80;46.00;;;;;;5069441;27;20575;-47
2022/07/10 07:52:46;;;;;;;2.10;1.10;;;23.80;46.10;;;;;;5085820;27;21133;-46
2022/07/10 07:55:27;;;;;;;1.50;1.27;;;23.80;46.10;;;;;;5102564;27;20537;-47
2022/07/10 07:58:08;;;;;;;2.90;1.20;;;23.80;46.10;;;;;;5098667;27;20608;-47
2022/07/10 08:00:49;;;;;;;1.00;0.90;;;23.80;46.00;;;;;;5079585;27;20516;-48
2022/07/10 08:03:29;;;;;;;1.50;0.83;;;23.80;46.10;;;;;;5075831;27;20537;-49
2022/07/10 08:06:30;;;;;;;1.20;1.07;;;23.80;46.10;;;;;;5074477;27;20608;-48
2022/07/10 08:09:11;;;;;;;2.90;1.20;;;23.80;46.10;;;;;;5095086;27;20658;-47
2022/07/10 08:11:52;;;;;;;2.20;1.27;;;23.80;46.20;;;;;;5090279;27;20546;-46
2022/07/10 08:14:34;;;;;;;1.43;1.00;;;23.80;46.10;;;;;;5080710;28;20525;-50
2022/07/10 08:17:14;;;;;;;1.77;1.43;;;23.80;46.20;;;;;;5116863;27;20641;-48
2022/07/10 08:19:57;;;;;;;0.90;0.80;;;23.80;45.90;;;;;;5126478;27;20740;-48
2022/07/10 08:22:38;;;;;;;1.37;0.80;;;23.80;46.00;;;;;;5069178;28;20549;-47
2022/07/10 08:25:18;;;;;;;1.67;0.93;;;23.80;46.00;;;;;;5080236;27;21103;-49
2022/07/10 08:28:02;;;;;;;1.20;0.83;;;23.80;46.00;;;;;;5094257;27;20625;-48
2022/07/10 08:30:43;;;;;;;1.60;1.27;;;23.80;46.10;;;;;;5091766;27;20560;-46
2022/07/10 08:33:24;;;;;;;1.73;1.40;;;23.80;46.10;;;;;;5062801;27;20673;-48
2022/07/10 08:36:05;;;;;;;2.17;1.30;;;23.80;45.90;;;;;;5126739;27;1276097;-47
2022/07/10 08:39:06;;;;;;;2.10;0.90;;;23.80;45.90;;;;;;5048008;27;20593;-46
2022/07/10 08:41:47;;;;;;;1.33;0.83;;;23.80;45.90;;;;;;5120197;27;1300529;-49
2022/07/10 08:44:27;;;;;;;1.50;1.40;;;23.80;45.90;;;;;;5087509;27;21096;-48
2022/07/10 08:47:08;;;;;;;1.50;1.10;;;23.80;45.90;;;;;;5056365;27;21167;-48
2022/07/10 08:49:49;;;;;;;1.20;1.10;;;23.80;45.90;;;;;;5128953;27;1327710;-48
2022/07/10 08:52:34;;;;;;;1.20;1.10;;;23.70;45.90;;;;;;5108320;27;21201;-48
2022/07/10 08:55:17;;;;;;;1.43;1.20;;;23.70;45.70;;;;;;5105325;27;20532;-48
2022/07/10 08:57:59;;;;;;;2.83;1.10;;;23.70;45.70;;;;;;5074711;27;20540;-45
2022/07/10 09:00:38;;;;;;;1.37;1.17;;;23.70;45.90;;;;;;5112083;27;20524;-47
2022/07/10 09:03:20;;;;;;;2.20;1.20;;;23.70;46.00;;;;;;5071621;28;20548;-49
2022/07/10 09:06:03;;;;;;;1.50;0.83;;;23.70;45.90;;;;;;5066168;28;20877;-47
2022/07/10 09:09:00;;;;;;;1.30;1.10;;;23.70;45.90;;;;;;5067112;27;20560;-49
2022/07/10 09:11:42;;;;;;;1.50;0.70;;;23.70;45.90;;;;;;5128719;27;20512;-49
2022/07/10 09:14:23;;;;;;;0.97;0.97;;;23.70;46.00;;;;;;5141125;27;1255728;-48
2022/07/10 09:17:14;;;;;;;2.50;1.57;;;23.70;46.00;;;;;;5081629;27;20884;-49
2022/07/10 09:19:56;;;;;;;1.23;1.00;;;23.60;45.90;;;;;;5114108;27;20539;-47
2022/07/10 09:22:37;;;;;;;3.33;0.97;;;23.60;46.00;;;;;;5064517;27;20942;-47
2022/07/10 09:25:18;;;;;;;1.40;1.20;;;23.60;46.00;;;;;;5081254;27;20596;-48
2022/07/10 09:28:05;;;;;;;1.37;1.10;;;23.60;46.10;;;;;;5096822;27;20884;-47
2022/07/10 09:30:46;;;;;;;1.50;1.20;;;23.60;46.00;;;;;;5161215;27;20510;-49
2022/07/10 09:33:27;;;;;;;2.03;1.23;;;23.60;45.90;;;;;;5097766;27;1263483;-48
2022/07/10 09:36:10;;;;;;;2.07;1.00;;;23.60;46.00;;;;;;5075527;28;20593;-46
2022/07/10 09:38:56;;;;;;;1.20;1.03;;;23.60;46.00;;;;;;5074153;27;21125;-52
2022/07/10 09:41:36;;;;;;;2.50;1.23;;;23.60;46.00;;;;;;5087794;28;20514;-47
2022/07/10 09:44:20;;;;;;;1.40;1.07;;;23.60;46.10;;;;;;5086751;27;20741;-47
2022/07/10 09:47:01;;;;;;;2.00;1.27;;;23.60;46.10;;;;;;5070384;27;20540;-47
2022/07/10 09:49:42;;;;;;;1.20;1.10;;;23.60;46.20;;;;;;5122244;27;20589;-52
2022/07/10 09:52:22;;;;;;;2.00;0.90;;;23.60;46.10;;;;;;5120164;27;1313765;-48
2022/07/10 09:55:05;;;;;;;1.53;1.43;;;23.60;46.20;;;;;;5101593;27;20537;-47
2022/07/10 09:57:51;;;;;;;1.70;1.03;;;23.60;46.20;;;;;;5079640;27;20569;-48
2022/07/10 10:00:32;;;;;;;1.20;1.00;;;23.60;46.30;;;;;;5107738;27;20622;-48
2022/07/10 10:03:15;;;;;;;3.90;1.63;;;23.60;46.40;;;;;;5066586;27;20595;-48
2022/07/10 10:05:59;;;;;;;1.80;1.33;;;23.60;46.30;;;;;;5085967;28;20585;-48
2022/07/10 10:08:52;;;;;;;1.73;1.10;;;23.60;46.30;;;;;;5074371;27;21121;-49
2022/07/10 10:11:36;;;;;;;1.77;0.90;;;23.60;46.40;;;;;;5088321;27;20608;-48
2022/07/10 10:14:22;;;;;;;1.17;0.80;;;23.60;46.40;;;;;;5128101;27;20958;-49
2022/07/10 10:17:07;;;;;;;1.37;1.13;;;23.60;46.30;;;;;;5070445;27;23492;-48
2022/07/10 10:22:50;;;;;;;1.43;1.20;;;23.50;46.20;;;;;;5139161;27;20624;-49
2022/07/10 10:25:33;;;;;;;1.37;1.00;;;23.60;46.40;;;;;;5167452;27;20583;-47
2022/07/10 10:28:15;;;;;;;3.10;1.20;;;23.50;46.40;;;;;;5164666;27;20561;-48
2022/07/10 10:30:59;;;;;;;1.73;1.57;;;23.50;46.40;;;;;;5087004;27;21121;-49
2022/07/10 10:33:47;;;;;;;1.37;1.20;;;23.50;46.30;;;;;;5069527;28;20590;-48
2022/07/10 10:36:48;;;;;;;0.87;0.87;;;23.50;46.10;;;;;;5076401;27;20554;-48
2022/07/10 10:39:52;;;;;;;1.47;1.20;;;23.50;46.20;;;;;;5081108;27;20601;-48
2022/07/10 10:42:40;;;;;;;1.70;1.23;;;23.50;46.40;;;;;;5085640;27;20611;-48
2022/07/10 10:45:34;;;;;;;2.77;1.13;;;23.50;46.50;;;;;;5144867;27;20527;-47
2022/07/10 10:48:20;;;;;;;2.67;1.23;;;23.50;46.70;;;;;;5065593;27;20597;-47
2022/07/10 10:51:17;;;;;;;1.37;1.00;;;23.50;46.40;;;;;;5032352;28;20951;-49
2022/07/10 10:54:06;;;;;;;2.93;1.00;;;23.40;46.20;;;;;;5048530;27;20561;-48
2022/07/10 10:57:15;;;;;;;2.70;1.00;;;23.40;46.30;;;;;;5076035;27;20535;-46
2022/07/10 10:59:58;;;;;;;1.93;1.50;;;23.40;46.40;;;;;;5095200;27;21120;-47
2022/07/10 11:02:40;;;;;;;2.40;1.57;;;23.40;46.50;;;;;;5069368;28;21029;-48
2022/07/10 11:05:44;;;;;;;1.80;1.30;;;23.40;47.80;;;;;;5115051;27;20517;-46
2022/07/10 11:08:44;;;;;;;1.77;1.00;;;23.40;46.60;;;;;;5136024;22;1208515;-51
2022/07/10 11:11:41;;;;;;;1.87;1.30;;;23.40;46.60;;;;;;5128550;27;20539;-51
2022/07/10 11:14:27;;;;;;;4.57;1.00;;;23.40;46.70;;;;;;5139572;27;1263550;-51
2022/07/10 11:17:09;;;;;;;4.60;1.30;;;23.40;46.70;;;;;;5059860;28;20558;-51
2022/07/10 11:19:54;;;;;;;1.60;1.20;;;23.40;46.60;;;;;;5108489;27;20598;-49
2022/07/10 11:23:00;;;;;;;1.70;1.10;;;23.40;46.80;;;;;;5073848;27;20580;-49
2022/07/10 11:26:00;;;;;;;2.70;1.07;;;23.40;46.90;;;;;;5087670;27;20545;-50
2022/07/10 11:28:51;;;;;;;1.60;1.00;;;23.40;46.90;;;;;;5070802;27;20658;-49
2022/07/10 11:31:37;;;;;;;1.10;1.00;;;23.40;46.80;;;;;;5125648;27;20567;-53
2022/07/10 11:34:18;;;;;;;1.20;1.10;;;23.40;46.70;;;;;;5086326;28;20923;-48
2022/07/10 11:37:00;;;;;;;4.80;1.50;;;23.40;46.70;;;;;;5112891;27;20593;-53
2022/07/10 11:39:41;;;;;;;1.73;1.33;;;23.40;46.80;;;;;;5080552;28;20607;-48
2022/07/10 11:42:21;;;;;;;2.27;1.20;;;23.40;46.80;;;;;;5096572;27;20970;-48
2022/07/10 11:45:23;;;;;;;1.63;1.17;;;23.40;46.80;;;;;;5086663;28;20516;-49
2022/07/10 11:48:07;;;;;;;1.50;1.07;;;23.40;46.80;;;;;;5055966;27;20594;-46
2022/07/10 11:50:48;;;;;;;1.30;0.93;;;23.40;46.80;;;;;;5087280;28;20522;-50
2022/07/10 11:53:29;;;;;;;1.63;1.30;;;23.40;46.80;;;;;;5069018;27;20562;-49
2022/07/10 11:56:13;;;;;;;3.00;1.40;;;23.30;46.90;;;;;;5069356;28;20593;-49
2022/07/10 11:58:58;;;;;;;2.90;1.73;;;23.40;46.90;;;;;;5053423;27;20607;-49
2022/07/10 12:01:45;;;;;;;3.13;1.10;;;23.30;47.00;;;;;;5084778;27;20588;-49
2022/07/10 12:04:29;;;;;;;1.47;1.10;;;23.30;46.90;;;;;;5117198;27;20546;-49
2022/07/10 12:07:11;;;;;;;1.37;1.10;;;23.30;47.00;;;;;;5064430;27;20607;-50
2022/07/10 12:09:55;;;;;;;1.40;1.20;;;23.30;47.00;;;;;;5085453;28;20542;-50
2022/07/10 12:12:36;;;;;;;1.90;1.67;;;23.30;47.10;;;;;;5085653;27;20593;-52
2022/07/10 12:18:17;;;;;;;1.30;1.00;;;23.40;47.20;;;;;;5049492;27;20553;-49
2022/07/10 12:20:59;;;;;;;1.83;1.10;;;23.40;47.20;;;;;;5127570;27;20992;-48
2022/07/10 12:23:42;;;;;;;2.17;0.90;;;23.30;47.10;;;;;;5065894;27;20611;-52
2022/07/10 12:26:31;;;;;;;1.47;0.87;;;23.30;47.20;;;;;;5103220;27;20537;-50
2022/07/10 12:29:21;;;;;;;2.87;1.03;;;23.30;47.10;;;;;;5087914;27;20656;-49
2022/07/10 12:32:02;;;;;;;2.00;1.57;;;23.30;47.20;;;;;;5081573;28;21119;-49
2022/07/10 12:34:43;;;;;;;1.20;1.10;;;23.40;47.30;;;;;;5142555;27;1258198;-49
2022/07/10 12:37:24;;;;;;;0.80;0.80;;;23.30;47.20;;;;;;5111688;27;20587;-49
2022/07/10 12:40:11;;;;;;;1.07;0.97;;;23.30;47.10;;;;;;5066216;27;20533;-50
2022/07/10 12:43:02;;;;;;;2.70;1.30;;;23.30;47.20;;;;;;5109375;27;20563;-51
2022/07/10 12:45:42;;;;;;;1.30;1.20;;;23.30;47.20;;;;;;5128245;27;20535;-49
2022/07/10 12:48:24;;;;;;;1.00;0.90;;;23.40;47.40;;;;;;5082162;27;20608;-49
2022/07/10 12:51:24;;;;;;;0.80;0.80;;;23.30;47.20;;;;;;5073102;27;21084;-51
2022/07/10 12:54:04;;;;;;;1.37;1.20;;;23.30;47.30;;;;;;5065534;27;20563;-48
2022/07/10 12:56:45;;;;;;;4.53;1.10;;;23.30;47.20;;;;;;5119555;27;20562;-50
2022/07/10 12:59:28;;;;;;;3.00;1.10;;;23.30;47.30;;;;;;5088298;27;20679;-50
2022/07/10 13:02:18;;;;;;;1.20;0.93;;;23.30;47.20;;;;;;5080063;28;20599;-49
2022/07/10 13:04:59;;;;;;;1.20;1.10;;;23.30;47.20;;;;;;5122763;27;20588;-51
2022/07/10 13:07:41;;;;;;;1.77;1.10;;;23.30;47.20;;;;;;5112758;27;20616;-51
2022/07/10 13:10:22;;;;;;;1.13;0.97;;;23.30;47.20;;;;;;5084177;27;20532;-50
2022/07/10 13:13:04;;;;;;;1.87;1.10;;;23.30;47.30;;;;;;5070621;27;20685;-51
2022/07/10 13:15:46;;;;;;;1.87;1.10;;;23.30;47.30;;;;;;5087762;27;20909;-48
2022/07/10 13:18:30;;;;;;;1.47;1.17;;;23.30;47.30;;;;;;5066324;27;20682;-49
2022/07/10 13:21:12;;;;;;;1.20;0.80;;;23.30;47.50;;;;;;5055306;28;20599;-49
2022/07/10 13:23:52;;;;;;;2.00;1.27;;;23.30;48.60;;;;;;5086314;27;20639;-49
2022/07/10 13:26:34;;;;;;;2.10;1.10;;;23.30;47.50;;;;;;5067074;27;20569;-50
2022/07/10 13:29:15;;;;;;;1.63;1.20;;;23.30;47.40;;;;;;5089213;27;20552;-48
2022/07/10 13:31:57;;;;;;;2.80;1.20;;;23.30;48.70;;;;;;5084844;28;20515;-48
2022/07/10 13:34:38;;;;;;;4.53;1.23;;;23.30;47.50;;;;;;5106439;27;20535;-49
2022/07/10 13:37:16;;;;;;;1.60;1.30;;;23.30;47.60;;;;;;5138264;27;1236634;-50
2022/07/10 13:39:57;;;;;;;1.57;1.10;;;23.30;47.50;;;;;;5120957;27;20533;-50
2022/07/10 13:42:39;;;;;;;1.73;1.20;;;23.30;47.50;;;;;;5069672;28;20568;-51
2022/07/10 13:45:20;;;;;;;1.67;1.00;;;23.30;47.50;;;;;;5087181;27;20660;-50
2022/07/10 13:48:01;;;;;;;2.20;1.40;;;23.30;47.60;;;;;;5075666;27;20545;-51
2022/07/10 13:50:43;;;;;;;2.30;1.33;;;23.30;47.70;;;;;;5086153;27;20555;-49
2022/07/10 13:53:23;;;;;;;2.13;1.50;;;23.30;47.70;;;;;;5057320;27;20559;-50
2022/07/10 13:56:06;;;;;;;1.97;1.20;;;23.30;47.70;;;;;;5077563;27;20567;-50
2022/07/10 13:58:50;;;;;;;1.97;1.20;;;23.30;47.60;;;;;;5069371;27;20549;-51
2022/07/10 14:01:30;;;;;;;2.40;1.10;;;23.30;47.70;;;;;;5086192;28;20532;-51
2022/07/10 14:04:10;;;;;;;1.37;1.17;;;23.30;47.70;;;;;;5054133;27;1229522;-50
2022/07/10 14:06:52;;;;;;;2.03;0.97;;;23.30;47.60;;;;;;5070549;27;20584;-49
2022/07/10 14:09:33;;;;;;;2.57;1.50;;;23.30;47.80;;;;;;5081521;28;20532;-50
2022/07/10 14:12:14;;;;;;;1.87;1.10;;;23.40;47.80;;;;;;5083144;27;20957;-50
2022/07/10 14:14:54;;;;;;;2.00;1.37;;;23.30;47.70;;;;;;5106749;27;20523;-52
2022/07/10 14:17:34;;;;;;;3.50;1.23;;;23.40;47.80;;;;;;5106570;27;20615;-48
2022/07/10 14:20:16;;;;;;;1.93;1.03;;;23.30;47.70;;;;;;5090984;28;20592;-51